createdAt,value
2022-11-30T00:01:21.904Z,26.15
2022-11-30T00:03:52.498Z,27.33
2022-11-30T00:06:23.158Z,25.38
2022-11-30T00:08:55.789Z,24.23
2022-11-30T00:11:24.592Z,24.65
2022-11-30T00:13:51.354Z,25.95
2022-11-30T00:16:18.109Z,25.05
2022-11-30T00:18:45.138Z,27.60
2022-11-30T00:21:13.789Z,26.42
2022-11-30T00:23:42.741Z,28.80
2022-11-30T00:26:12.116Z,30.25
2022-11-30T00:28:40.213Z,26.27
2022-11-30T00:31:11.149Z,27.90
2022-11-30T00:33:38.690Z,25.45
2022-11-30T00:36:08.603Z,29.15
2022-11-30T00:38:36.014Z,30.10
2022-11-30T00:41:03.729Z,26.63
2022-11-30T00:43:30.804Z,27.83
2022-11-30T00:45:58.007Z,28.05
2022-11-30T00:48:25.226Z,29.52
2022-11-30T00:50:52.251Z,29.05
2022-11-30T00:53:19.692Z,27.17
2022-11-30T00:55:47.039Z,30.80
2022-11-30T00:58:14.309Z,32.05
2022-11-30T01:00:41.410Z,32.53
2022-11-30T01:03:08.526Z,34.60
2022-11-30T01:05:36.428Z,33.17
2022-11-30T01:08:04.956Z,33.88
2022-11-30T01:10:32.883Z,36.45
2022-11-30T01:12:59.673Z,33.95
2022-11-30T01:15:26.506Z,41.40
2022-11-30T01:17:53.463Z,33.75
2022-11-30T01:20:20.240Z,37.28
2022-11-30T01:22:46.964Z,33.70
2022-11-30T01:25:13.891Z,38.40
2022-11-30T01:27:40.601Z,38.17
2022-11-30T01:30:07.798Z,41.47
2022-11-30T01:32:34.558Z,38.17
2022-11-30T01:35:01.273Z,36.65
2022-11-30T01:37:30.010Z,34.22
2022-11-30T01:39:56.915Z,35.50
2022-11-30T01:42:24.001Z,35.45
2022-11-30T01:44:55.262Z,34.55
2022-11-30T01:47:30.677Z,33.03
2022-11-30T01:50:19.521Z,36.88
2022-11-30T01:52:53.850Z,34.20
2022-11-30T01:55:31.145Z,32.05
2022-11-30T01:58:32.422Z,35.83
2022-11-30T02:00:59.936Z,40.03
2022-11-30T02:03:36.212Z,42.40
2022-11-30T02:06:03.172Z,48.47
2022-11-30T02:08:31.718Z,42.05
2022-11-30T02:11:03.944Z,45.00
2022-11-30T02:13:59.400Z,44.40
2022-11-30T02:16:55.371Z,46.10
2022-11-30T02:19:24.851Z,50.58
2022-11-30T02:22:19.042Z,46.22
2022-11-30T02:25:04.804Z,46.72
2022-11-30T02:27:40.678Z,50.75
2022-11-30T02:30:18.582Z,44.80
2022-11-30T02:33:03.168Z,46.85
2022-11-30T02:35:36.119Z,44.10
2022-11-30T02:38:04.884Z,49.63
2022-11-30T02:40:31.779Z,45.83
2022-11-30T02:43:01.215Z,56.47
2022-11-30T02:45:43.285Z,49.30
2022-11-30T02:48:12.104Z,50.85
2022-11-30T02:50:41.398Z,51.80
2022-11-30T02:53:09.973Z,50.85
2022-11-30T02:55:37.947Z,52.25
2022-11-30T02:58:05.442Z,53.97
2022-11-30T03:00:32.268Z,48.60
2022-11-30T03:02:59.257Z,51.85
2022-11-30T03:05:26.025Z,48.78
2022-11-30T03:07:52.821Z,48.72
2022-11-30T03:10:19.587Z,44.20
2022-11-30T03:12:46.306Z,48.50
2022-11-30T03:15:13.082Z,44.33
2022-11-30T03:17:39.823Z,51.88
2022-11-30T03:20:07.167Z,47.67
2022-11-30T03:22:33.865Z,51.97
2022-11-30T03:25:00.641Z,47.17
2022-11-30T03:27:27.352Z,45.80
2022-11-30T03:29:54.246Z,51.17
2022-11-30T03:32:20.948Z,52.25
2022-11-30T03:34:47.939Z,49.40
2022-11-30T03:37:14.856Z,49.03
2022-11-30T03:39:41.574Z,48.30
2022-11-30T03:42:08.281Z,45.15
2022-11-30T03:44:35.003Z,48.42
2022-11-30T03:47:01.822Z,44.33
2022-11-30T03:49:28.696Z,53.13
2022-11-30T03:51:55.422Z,53.70
2022-11-30T03:54:22.309Z,43.10
2022-11-30T03:56:49.081Z,46.15
2022-11-30T03:59:15.804Z,53.35
2022-11-30T04:01:42.593Z,48.30
2022-11-30T04:04:10.930Z,46.05
2022-11-30T04:06:38.080Z,56.00
2022-11-30T04:09:04.982Z,54.35
2022-11-30T04:11:31.765Z,50.67
2022-11-30T04:13:58.541Z,53.97
2022-11-30T04:16:25.303Z,55.90
2022-11-30T04:18:52.458Z,53.53
2022-11-30T04:21:19.319Z,51.22
2022-11-30T04:23:46.080Z,48.38
2022-11-30T04:26:14.814Z,47.60
2022-11-30T04:28:42.170Z,49.05
2022-11-30T04:31:09.592Z,47.97
2022-11-30T04:33:36.649Z,51.05
2022-11-30T04:36:05.919Z,52.28
2022-11-30T04:38:33.342Z,50.05
2022-11-30T04:41:00.247Z,49.17
2022-11-30T04:43:27.262Z,51.33
2022-11-30T04:45:54.029Z,57.08
2022-11-30T04:48:20.808Z,50.97
2022-11-30T04:50:47.592Z,52.83
2022-11-30T04:53:14.308Z,50.90
2022-11-30T04:55:41.166Z,51.90
2022-11-30T04:58:08.113Z,54.08
2022-11-30T05:00:35.733Z,51.25
2022-11-30T05:03:02.582Z,51.65
2022-11-30T05:05:29.668Z,48.25
2022-11-30T05:07:58.476Z,54.97
2022-11-30T05:10:26.816Z,52.35
2022-11-30T05:12:53.594Z,57.88
2022-11-30T05:15:20.642Z,52.17
2022-11-30T05:17:48.054Z,50.63
2022-11-30T05:20:14.937Z,51.40
2022-11-30T05:22:41.685Z,51.70
2022-11-30T05:25:09.363Z,52.83
2022-11-30T05:27:37.042Z,54.40
2022-11-30T05:30:05.025Z,51.63
2022-11-30T05:32:32.261Z,52.45
2022-11-30T05:34:59.429Z,54.05
2022-11-30T05:37:26.584Z,55.10
2022-11-30T05:39:53.302Z,47.80
2022-11-30T05:42:20.112Z,52.17
2022-11-30T05:44:48.026Z,52.72
2022-11-30T05:47:15.130Z,51.53
2022-11-30T05:49:41.972Z,57.25
2022-11-30T05:52:08.823Z,52.80
2022-11-30T05:54:35.531Z,51.67
2022-11-30T05:57:02.360Z,54.90
2022-11-30T05:59:29.150Z,48.45
2022-11-30T06:01:55.985Z,53.00
2022-11-30T06:04:23.030Z,45.60
2022-11-30T06:06:52.165Z,46.75
2022-11-30T06:09:19.012Z,53.92
2022-11-30T06:11:45.737Z,52.17
2022-11-30T06:14:12.461Z,50.65
2022-11-30T06:16:39.751Z,52.42
2022-11-30T06:19:06.878Z,56.42
2022-11-30T06:21:33.932Z,47.97
2022-11-30T06:24:00.819Z,52.95
2022-11-30T06:26:27.581Z,47.47
2022-11-30T06:28:54.404Z,51.85
2022-11-30T06:31:21.205Z,49.70
2022-11-30T06:33:47.981Z,52.50
2022-11-30T06:36:19.919Z,49.22
2022-11-30T06:38:46.672Z,53.95
2022-11-30T06:41:13.376Z,55.25
2022-11-30T06:43:40.566Z,48.95
2022-11-30T06:46:07.811Z,47.83
2022-11-30T06:48:35.573Z,50.80
2022-11-30T06:51:05.550Z,48.42
2022-11-30T06:53:32.325Z,48.45
2022-11-30T06:55:59.045Z,49.90
2022-11-30T06:58:25.801Z,51.08
2022-11-30T07:00:52.581Z,52.92
2022-11-30T07:03:19.560Z,48.92
2022-11-30T07:05:47.078Z,52.70
2022-11-30T07:08:15.691Z,50.53
2022-11-30T07:10:46.959Z,52.90
2022-11-30T07:13:16.161Z,50.50
2022-11-30T07:15:44.005Z,54.78
2022-11-30T07:18:11.496Z,53.60
2022-11-30T07:20:38.643Z,48.72
2022-11-30T07:23:25.469Z,53.65
2022-11-30T07:26:09.606Z,48.85
2022-11-30T07:28:45.990Z,52.53
2022-11-30T07:31:25.133Z,48.05
2022-11-30T07:33:52.358Z,46.60
2022-11-30T07:36:20.503Z,48.70
2022-11-30T07:38:47.837Z,50.80
2022-11-30T07:41:14.992Z,55.65
2022-11-30T07:43:41.889Z,52.33
2022-11-30T07:46:11.430Z,49.97
2022-11-30T07:48:38.742Z,50.08
2022-11-30T07:51:13.070Z,50.78
2022-11-30T07:53:40.251Z,46.00
2022-11-30T07:56:13.587Z,45.30
2022-11-30T07:58:41.427Z,44.10
2022-11-30T08:01:14.794Z,49.67
2022-11-30T08:06:14.095Z,47.47
2022-11-30T08:08:45.194Z,46.80
2022-11-30T08:11:14.766Z,49.47
2022-11-30T08:13:41.990Z,47.72
2022-11-30T08:16:15.106Z,46.05
2022-11-30T08:18:42.581Z,45.40
2022-11-30T08:21:11.880Z,44.33
2022-11-30T08:23:41.464Z,39.65
2022-11-30T08:26:12.072Z,44.22
2022-11-30T08:28:39.544Z,49.70
2022-11-30T08:31:10.105Z,44.28
2022-11-30T08:33:37.706Z,43.72
2022-11-30T08:36:19.564Z,49.00
2022-11-30T08:38:47.359Z,42.70
2022-11-30T08:41:16.318Z,39.08
2022-11-30T08:43:43.106Z,41.95
2022-11-30T08:46:42.422Z,42.20
2022-11-30T08:49:19.861Z,39.97
2022-11-30T08:52:15.794Z,40.00
2022-11-30T08:54:33.594Z,37.65
2022-11-30T08:57:00.296Z,41.70
2022-11-30T08:59:27.038Z,38.28
2022-11-30T09:01:53.757Z,38.90
2022-11-30T09:04:20.480Z,40.03
2022-11-30T09:06:47.198Z,37.42
2022-11-30T09:09:14.774Z,39.92
2022-11-30T09:11:43.303Z,40.67
2022-11-30T09:14:10.329Z,39.10
2022-11-30T09:16:37.308Z,38.67
2022-11-30T09:19:04.097Z,37.13
2022-11-30T09:21:31.035Z,35.65
2022-11-30T09:23:57.879Z,36.90
2022-11-30T09:26:25.376Z,37.90
2022-11-30T09:28:54.895Z,37.42
2022-11-30T09:31:24.022Z,36.97
2022-11-30T09:33:51.984Z,37.05
2022-11-30T09:36:21.647Z,39.97
2022-11-30T09:38:48.777Z,35.33
2022-11-30T09:41:40.744Z,37.28
2022-11-30T09:44:25.323Z,38.90
2022-11-30T09:47:35.978Z,37.30
2022-11-30T09:50:10.498Z,38.08
2022-11-30T09:52:41.818Z,39.75
2022-11-30T09:55:11.864Z,33.72
2022-11-30T09:57:46.296Z,36.75
2022-11-30T10:00:17.737Z,37.03
2022-11-30T10:02:45.654Z,35.67
2022-11-30T10:05:19.531Z,35.90
2022-11-30T10:08:04.987Z,36.65
2022-11-30T10:10:46.303Z,35.50
2022-11-30T10:13:59.526Z,34.65
2022-11-30T10:16:42.234Z,37.30
2022-11-30T10:19:11.679Z,37.03
2022-11-30T10:21:57.157Z,32.63
2022-11-30T10:24:29.542Z,34.72
2022-11-30T10:26:58.152Z,37.25
2022-11-30T10:29:38.205Z,32.60
2022-11-30T10:32:18.370Z,35.67
2022-11-30T10:34:50.160Z,31.80
2022-11-30T10:37:21.713Z,36.25
2022-11-30T10:40:05.788Z,34.95
2022-11-30T10:42:44.663Z,35.08
2022-11-30T10:45:13.130Z,33.58
2022-11-30T10:47:51.354Z,31.63
2022-11-30T10:50:18.567Z,33.42
2022-11-30T10:52:48.549Z,35.13
2022-11-30T10:55:20.473Z,35.20
2022-11-30T10:57:51.040Z,38.90
2022-11-30T11:00:18.241Z,37.13
2022-11-30T11:02:49.299Z,33.67
2022-11-30T11:05:29.270Z,32.90
2022-11-30T11:08:24.632Z,29.95
2022-11-30T11:10:51.691Z,33.53
2022-11-30T11:13:41.128Z,35.35
2022-11-30T11:16:10.792Z,34.90
2022-11-30T11:18:53.249Z,31.45
2022-11-30T11:21:22.818Z,32.38
2022-11-30T11:23:57.416Z,33.83
2022-11-30T11:26:29.867Z,35.05
2022-11-30T11:29:02.301Z,33.00
2022-11-30T11:31:39.314Z,32.55
2022-11-30T11:34:24.402Z,32.70
2022-11-30T11:37:07.938Z,31.30
2022-11-30T11:39:37.632Z,30.70
2022-11-30T11:42:05.498Z,30.70
2022-11-30T11:44:35.483Z,32.83
2022-11-30T11:47:06.908Z,30.85
2022-11-30T11:49:36.944Z,32.30
2022-11-30T11:52:15.257Z,30.17
2022-11-30T11:55:01.754Z,32.85
2022-11-30T11:57:45.003Z,30.42
2022-11-30T12:00:18.202Z,51.72
2022-11-30T12:02:48.000Z,51.35
2022-11-30T12:05:21.147Z,38.80
2022-11-30T12:10:52.197Z,33.25
2022-11-30T12:13:26.997Z,50.28
2022-11-30T12:16:12.258Z,32.92
2022-11-30T12:18:51.174Z,31.58
2022-11-30T12:21:43.598Z,33.08
2022-11-30T12:24:25.731Z,36.58
2022-11-30T12:26:59.018Z,31.13
2022-11-30T12:29:39.437Z,29.00
2022-11-30T12:32:43.250Z,29.92
2022-11-30T12:35:37.320Z,29.50
2022-11-30T12:38:19.186Z,29.73
2022-11-30T12:41:12.557Z,26.38
2022-11-30T12:44:00.467Z,22.83
2022-11-30T12:46:51.700Z,23.98
2022-11-30T12:49:27.066Z,30.65
2022-11-30T12:52:08.565Z,23.40
2022-11-30T12:55:17.043Z,23.23
2022-11-30T12:58:08.795Z,27.77
2022-11-30T13:01:18.424Z,24.27
2022-11-30T13:04:02.516Z,24.00
2022-11-30T13:06:42.670Z,18.45
2022-11-30T13:09:31.601Z,23.60
2022-11-30T13:12:08.195Z,23.77
2022-11-30T13:14:36.079Z,28.48
2022-11-30T13:17:16.933Z,26.13
2022-11-30T13:19:55.591Z,29.10
2022-11-30T13:22:52.832Z,30.83
2022-11-30T13:26:06.458Z,31.83
2022-11-30T13:29:13.416Z,36.10
2022-11-30T13:32:04.304Z,36.28
2022-11-30T13:34:32.677Z,31.45
2022-11-30T13:37:12.985Z,31.60
2022-11-30T13:39:45.987Z,33.95
2022-11-30T13:42:21.749Z,32.45
2022-11-30T13:44:49.854Z,31.65
2022-11-30T13:47:31.136Z,36.50
2022-11-30T13:50:05.936Z,34.60
2022-11-30T13:52:57.630Z,34.28
2022-11-30T13:55:42.548Z,33.13
2022-11-30T13:58:11.931Z,38.17
2022-11-30T14:00:40.514Z,31.40
2022-11-30T14:03:22.650Z,44.20
2022-11-30T14:05:50.013Z,40.30
2022-11-30T14:08:21.660Z,33.97
2022-11-30T14:10:53.119Z,38.58
2022-11-30T14:13:21.203Z,36.08
2022-11-30T14:15:47.902Z,35.13
2022-11-30T14:18:21.880Z,38.30
2022-11-30T14:20:50.942Z,38.67
2022-11-30T14:23:20.292Z,38.28
2022-11-30T14:25:50.883Z,37.58
2022-11-30T14:28:21.354Z,33.45
2022-11-30T14:30:48.913Z,35.13
2022-11-30T14:33:25.575Z,38.75
2022-11-30T14:35:56.408Z,35.80
2022-11-30T14:38:29.476Z,34.15
2022-11-30T14:40:57.146Z,37.53
2022-11-30T14:43:24.498Z,34.60
2022-11-30T14:46:09.154Z,38.53
2022-11-30T14:48:39.081Z,35.25
2022-11-30T14:51:06.212Z,35.47
2022-11-30T14:54:00.521Z,38.50
2022-11-30T14:56:40.762Z,35.33
2022-11-30T14:59:32.310Z,31.30
2022-11-30T15:02:02.739Z,35.50
2022-11-30T15:04:30.652Z,36.20
2022-11-30T15:06:58.028Z,39.90
2022-11-30T15:09:31.348Z,37.60
2022-11-30T15:11:59.020Z,36.05
2022-11-30T15:14:25.820Z,36.83
2022-11-30T15:16:54.956Z,34.72
2022-11-30T15:19:25.198Z,36.55
2022-11-30T15:21:52.991Z,42.17
2022-11-30T15:24:20.440Z,35.83
2022-11-30T15:26:53.720Z,35.83
2022-11-30T15:29:30.922Z,37.92
2022-11-30T15:32:00.587Z,36.17
2022-11-30T15:34:37.221Z,35.22
2022-11-30T15:37:05.246Z,32.80
2022-11-30T15:39:32.695Z,36.63
2022-11-30T15:42:01.593Z,35.63
2022-11-30T15:44:37.334Z,35.25
2022-11-30T15:47:07.237Z,39.67
2022-11-30T15:49:36.336Z,34.22
2022-11-30T15:52:11.904Z,34.40
2022-11-30T15:54:46.053Z,36.15
2022-11-30T15:57:13.303Z,37.53
2022-11-30T15:59:40.400Z,42.15
2022-11-30T16:02:23.779Z,42.28
2022-11-30T16:04:56.571Z,36.05
2022-11-30T16:07:30.341Z,42.30
2022-11-30T16:10:13.976Z,43.53
2022-11-30T16:15:30.461Z,36.33
2022-11-30T16:18:13.736Z,38.45
2022-11-30T16:20:42.293Z,38.90
2022-11-30T16:23:15.923Z,36.47
2022-11-30T16:25:43.779Z,40.20
2022-11-30T16:28:12.342Z,38.25
2022-11-30T16:30:41.041Z,36.17
2022-11-30T16:33:14.728Z,34.03
2022-11-30T16:36:07.580Z,38.80
2022-11-30T16:38:34.441Z,41.28
2022-11-30T16:41:19.916Z,38.40
2022-11-30T16:43:48.261Z,35.72
2022-11-30T16:46:20.360Z,36.47
2022-11-30T16:48:47.722Z,41.58
2022-11-30T16:51:28.588Z,37.30
2022-11-30T16:53:55.943Z,32.47
2022-11-30T16:56:23.074Z,36.88
2022-11-30T16:58:50.453Z,35.00
2022-11-30T17:01:48.269Z,37.05
2022-11-30T17:04:31.622Z,35.28
2022-11-30T17:07:02.782Z,37.88
2022-11-30T17:09:30.391Z,34.85
2022-11-30T17:11:57.340Z,35.83
2022-11-30T17:14:24.058Z,37.58
2022-11-30T17:16:50.900Z,32.72
2022-11-30T17:19:17.663Z,32.65
2022-11-30T17:21:44.684Z,32.92
2022-11-30T17:24:12.679Z,38.95
2022-11-30T17:26:39.526Z,39.72
2022-11-30T17:29:06.380Z,36.55
2022-11-30T17:31:33.127Z,36.10
2022-11-30T17:34:00.695Z,36.90
2022-11-30T17:36:29.266Z,36.42
2022-11-30T17:38:56.644Z,37.40
2022-11-30T17:41:23.530Z,36.38
2022-11-30T17:43:50.300Z,35.45
2022-11-30T17:46:18.387Z,37.25
2022-11-30T17:48:45.669Z,36.45
2022-11-30T17:51:13.247Z,33.25
2022-11-30T17:53:41.895Z,34.25
2022-11-30T17:56:11.117Z,36.35
2022-11-30T17:58:43.499Z,32.13
2022-11-30T18:01:24.308Z,34.40
2022-11-30T18:03:51.803Z,33.15
2022-11-30T18:06:19.139Z,33.95
2022-11-30T18:08:46.250Z,35.17
2022-11-30T18:11:15.962Z,32.50
2022-11-30T18:13:42.861Z,32.90
2022-11-30T18:16:12.506Z,35.50
2022-11-30T18:18:45.806Z,36.10
2022-11-30T18:21:17.759Z,33.83
2022-11-30T18:23:44.721Z,36.33
2022-11-30T18:26:17.799Z,34.60
2022-11-30T18:28:45.522Z,37.85
2022-11-30T18:31:13.207Z,37.45
2022-11-30T18:33:40.124Z,35.90
2022-11-30T18:36:07.741Z,35.90
2022-11-30T18:38:37.857Z,35.65
2022-11-30T18:41:06.305Z,35.33
2022-11-30T18:43:33.864Z,34.97
2022-11-30T18:46:04.326Z,35.17
2022-11-30T18:48:31.156Z,33.60
2022-11-30T18:50:58.209Z,35.70
2022-11-30T18:53:24.993Z,35.75
2022-11-30T18:55:51.864Z,37.00
2022-11-30T18:58:18.647Z,41.35
2022-11-30T19:00:45.373Z,35.05
2022-11-30T19:03:12.110Z,32.38
2022-11-30T19:05:40.437Z,35.63
2022-11-30T19:08:11.250Z,35.80
2022-11-30T19:10:40.061Z,34.33
2022-11-30T19:13:07.214Z,36.47
2022-11-30T19:15:38.871Z,36.28
2022-11-30T19:18:06.199Z,51.13
2022-11-30T19:20:40.426Z,77.85
2022-11-30T19:23:07.523Z,49.30
2022-11-30T19:25:34.338Z,38.97
2022-11-30T19:28:01.097Z,35.63
2022-11-30T19:30:28.063Z,35.80
2022-11-30T19:32:55.035Z,39.20
2022-11-30T19:35:23.112Z,35.65
2022-11-30T19:37:52.536Z,33.85
2022-11-30T19:40:19.346Z,34.45
2022-11-30T19:42:46.098Z,34.45
2022-11-30T19:45:12.893Z,33.35
2022-11-30T19:47:39.653Z,35.50
2022-11-30T19:50:07.026Z,32.00
2022-11-30T19:52:34.243Z,27.02
2022-11-30T19:55:01.034Z,29.27
2022-11-30T19:57:27.786Z,27.70
2022-11-30T19:59:54.668Z,40.85
2022-11-30T20:02:21.444Z,35.33
2022-11-30T20:04:48.574Z,36.72
2022-11-30T20:07:15.587Z,38.85
2022-11-30T20:09:42.453Z,34.92
2022-11-30T20:12:09.188Z,36.20
2022-11-30T20:14:36.787Z,37.25
2022-11-30T20:17:03.783Z,38.42
2022-11-30T20:19:31.611Z,37.55
2022-11-30T20:21:59.269Z,40.35
2022-11-30T20:24:26.550Z,35.55
2022-11-30T20:26:53.966Z,30.15
2022-11-30T20:29:20.726Z,36.05
2022-11-30T20:31:48.945Z,35.25
2022-11-30T20:34:16.973Z,30.98
2022-11-30T20:36:43.732Z,35.08
2022-11-30T20:39:11.393Z,35.05
2022-11-30T20:41:38.344Z,32.05
2022-11-30T20:44:05.149Z,30.85
2022-11-30T20:46:34.836Z,34.08
2022-11-30T20:49:03.091Z,33.17
2022-11-30T20:51:33.247Z,36.17
2022-11-30T20:54:02.764Z,35.03
2022-11-30T20:56:30.034Z,36.25
2022-11-30T20:59:00.090Z,36.72
2022-11-30T21:01:26.862Z,32.05
2022-11-30T21:03:53.721Z,31.58
2022-11-30T21:06:20.766Z,40.80
2022-11-30T21:08:47.559Z,39.97
2022-11-30T21:11:17.433Z,38.50
2022-11-30T21:13:45.777Z,44.65
2022-11-30T21:16:14.630Z,38.95
2022-11-30T21:18:44.232Z,36.63
2022-11-30T21:21:20.181Z,32.20
2022-11-30T21:23:47.753Z,39.17
2022-11-30T21:26:20.552Z,34.20
2022-11-30T21:28:48.810Z,33.92
2022-11-30T21:31:16.056Z,37.40
2022-11-30T21:33:45.870Z,36.35
2022-11-30T21:36:17.496Z,32.83
2022-11-30T21:38:44.320Z,38.08
2022-11-30T21:41:12.669Z,39.15
2022-11-30T21:43:39.991Z,39.25
2022-11-30T21:46:17.966Z,41.85
2022-11-30T21:48:48.622Z,43.50
2022-11-30T21:51:20.914Z,37.13
2022-11-30T21:53:53.774Z,39.97
2022-11-30T21:56:24.579Z,37.42
2022-11-30T21:58:51.773Z,38.60
2022-11-30T22:01:25.404Z,38.92
2022-11-30T22:03:53.971Z,37.65
2022-11-30T22:06:20.852Z,42.63
2022-11-30T22:08:47.722Z,38.33
2022-11-30T22:11:17.228Z,38.47
2022-11-30T22:13:45.110Z,37.45
2022-11-30T22:16:14.821Z,37.05
2022-11-30T22:18:42.823Z,38.60
2022-11-30T22:21:17.727Z,38.50
2022-11-30T22:23:56.016Z,37.28
2022-11-30T22:26:28.243Z,37.78
2022-11-30T22:29:00.394Z,38.40
2022-11-30T22:31:29.813Z,34.60
2022-11-30T22:33:57.550Z,36.03
2022-11-30T22:36:27.289Z,35.10
2022-11-30T22:38:56.120Z,35.28
2022-11-30T22:41:23.723Z,37.55
2022-11-30T22:43:50.537Z,38.25
2022-11-30T22:46:25.849Z,35.05
2022-11-30T22:48:53.180Z,40.90
2022-11-30T22:51:25.272Z,39.45
2022-11-30T22:53:53.224Z,34.95
2022-11-30T22:56:31.860Z,40.63
2022-11-30T22:59:00.793Z,40.88
2022-11-30T23:01:32.287Z,44.20
2022-11-30T23:04:04.985Z,45.28
2022-11-30T23:06:32.757Z,47.20
2022-11-30T23:09:00.611Z,50.53
2022-11-30T23:11:29.906Z,45.25
2022-11-30T23:13:56.933Z,46.28
2022-11-30T23:16:24.164Z,42.58
2022-11-30T23:19:00.366Z,42.33
2022-11-30T23:21:41.669Z,49.95
2022-11-30T23:24:13.379Z,43.50
2022-11-30T23:26:40.921Z,47.40
2022-11-30T23:29:10.261Z,42.10
2022-11-30T23:31:39.434Z,46.63
2022-11-30T23:34:10.660Z,47.33
2022-11-30T23:36:37.860Z,47.85
2022-11-30T23:39:10.908Z,48.33
2022-11-30T23:41:38.415Z,49.08
2022-11-30T23:44:05.652Z,52.00
2022-11-30T23:46:32.509Z,49.13
2022-11-30T23:48:59.674Z,49.85
2022-11-30T23:51:26.485Z,46.55
2022-11-30T23:53:53.653Z,46.53
2022-11-30T23:56:22.045Z,50.70
2022-11-30T23:58:49.135Z,67.20
